Time;durP1;ratioP1;P1;durP2;ratioP2;P2;SDS_P1;SDS_P2;PMS_P1;PMS_P2;Temp;Humidity;BMP_temperature;BMP_pressure;BME280_temperature;BME280_humidity;BME280_pressure;Samples;Min_cycle;Max_cycle;Signal;HPM_P1;HPM_P2
2022/05/14 00:01:31;;;;;;;;;;;23.10;51.70;;;;;;4986553;28;19914;-67
2022/05/14 00:03:57;;;;;;;;;;;23.10;51.70;;;;;;4982116;28;19953;-67
2022/05/14 00:06:23;;;;;;;;;;;23.10;51.70;;;;;;4981652;28;19940;-66
2022/05/14 00:08:48;;;;;;;;;;;23.10;51.70;;;;;;4976327;28;20365;-67
2022/05/14 00:13:58;;;;;;;;;;;23.00;51.70;;;;;;4989710;28;19971;-65
2022/05/14 00:16:23;;;;;;;;;;;23.00;51.70;;;;;;5004502;28;20340;-65
2022/05/14 00:18:49;;;;;;;;;;;23.00;51.70;;;;;;4982392;28;19917;-66
2022/05/14 00:21:14;;;;;;;;;;;23.00;51.70;;;;;;4988699;28;20627;-63
2022/05/14 00:23:40;;;;;;;;;;;23.00;51.70;;;;;;4986687;28;19917;-66
2022/05/14 00:26:05;;;;;;;;;;;23.00;51.70;;;;;;4993452;28;19960;-66
2022/05/14 00:28:31;;;;;;;;;;;23.00;51.70;;;;;;4983929;28;19914;-63
2022/05/14 00:30:56;;;;;;;;;;;23.00;51.70;;;;;;4986310;28;19914;-67
2022/05/14 00:33:22;;;;;;;;;;;23.00;51.70;;;;;;5003000;28;19925;-65
2022/05/14 00:35:47;;;;;;;;;;;23.00;51.70;;;;;;5002697;28;20280;-63
2022/05/14 00:38:13;;;;;;;;;;;23.00;51.70;;;;;;4989365;28;19914;-63
2022/05/14 00:40:42;;;;;;;;;;;23.00;51.70;;;;;;4972243;28;19918;-66
2022/05/14 00:43:08;;;;;;;;;;;23.00;51.70;;;;;;5008451;28;20300;-62
2022/05/14 00:45:34;;;;;;;;;;;23.00;51.70;;;;;;5007255;28;19921;-66
2022/05/14 00:48:00;;;;;;;;;;;23.00;51.80;;;;;;4972753;28;19965;-66
2022/05/14 00:50:25;;;;;;;;;;;23.00;51.70;;;;;;4987254;28;20242;-67
2022/05/14 00:52:52;;;;;;;;;;;23.00;51.80;;;;;;5009454;28;19922;-66
2022/05/14 00:55:17;;;;;;;;;;;23.00;51.80;;;;;;5003131;28;21199;-66
2022/05/14 00:57:44;;;;;;;;;;;23.00;51.70;;;;;;4992297;28;19914;-66
2022/05/14 01:00:17;;;;;;;;;;;22.90;51.70;;;;;;4986933;28;19984;-66
2022/05/14 01:02:43;;;;;;;;;;;23.00;51.80;;;;;;5004212;28;19921;-66
2022/05/14 01:05:09;;;;;;;;;;;22.90;51.70;;;;;;5004757;28;19918;-62
2022/05/14 01:07:36;;;;;;;;;;;22.90;51.80;;;;;;4994603;28;19914;-66
2022/05/14 01:10:01;;;;;;;;;;;22.90;52.40;;;;;;4986517;28;19925;-67
2022/05/14 01:12:27;;;;;;;;;;;22.90;51.80;;;;;;5001349;28;19924;-66
2022/05/14 01:14:52;;;;;;;;;;;22.90;51.80;;;;;;4999566;28;20523;-67
2022/05/14 01:17:18;;;;;;;;;;;22.90;51.80;;;;;;4998132;28;19918;-66
2022/05/14 01:19:43;;;;;;;;;;;22.90;51.90;;;;;;4984829;28;19913;-65
2022/05/14 01:22:12;;;;;;;;;;;22.90;51.90;;;;;;4995809;28;20544;-65
2022/05/14 01:27:37;;;;;;;;;;;22.90;51.90;;;;;;4995658;28;19971;-65
2022/05/14 01:30:03;;;;;;;;;;;22.90;51.90;;;;;;4983543;28;19918;-62
2022/05/14 01:32:29;;;;;;;;;;;22.90;51.90;;;;;;4996762;28;19929;-61
2022/05/14 01:34:54;;;;;;;;;;;22.90;51.90;;;;;;5003130;28;19921;-60
2022/05/14 01:37:20;;;;;;;;;;;22.90;51.90;;;;;;5000108;28;19937;-64
2022/05/14 01:39:46;;;;;;;;;;;22.90;51.90;;;;;;4982865;28;19917;-64
2022/05/14 01:42:11;;;;;;;;;;;22.90;51.90;;;;;;4994445;28;19914;-65
2022/05/14 01:44:37;;;;;;;;;;;22.90;51.90;;;;;;5003464;28;19964;-65
2022/05/14 01:47:02;;;;;;;;;;;22.80;51.90;;;;;;5002399;28;19925;-65
2022/05/14 01:49:28;;;;;;;;;;;22.80;51.90;;;;;;4980818;28;19918;-61
2022/05/14 01:51:53;;;;;;;;;;;22.80;51.90;;;;;;4990231;28;19925;-65
2022/05/14 01:54:19;;;;;;;;;;;22.90;52.00;;;;;;5002706;28;20340;-64
2022/05/14 01:56:44;;;;;;;;;;;22.80;51.90;;;;;;5006571;28;20642;-65
2022/05/14 01:59:10;;;;;;;;;;;22.80;51.90;;;;;;4983743;28;19921;-63
2022/05/14 02:01:36;;;;;;;;;;;22.80;51.90;;;;;;4989725;28;19936;-65
2022/05/14 02:04:03;;;;;;;;;;;22.80;51.90;;;;;;5002289;28;19937;-57
2022/05/14 02:06:29;;;;;;;;;;;22.80;51.90;;;;;;5009622;28;19965;-66
2022/05/14 02:08:55;;;;;;;;;;;22.80;52.00;;;;;;4988579;28;19921;-65
2022/05/14 02:11:21;;;;;;;;;;;22.80;51.90;;;;;;4990320;28;19989;-65
2022/05/14 02:13:46;;;;;;;;;;;22.80;52.00;;;;;;4990240;28;19922;-65
2022/05/14 02:16:12;;;;;;;;;;;22.80;52.00;;;;;;4982804;28;19920;-65
2022/05/14 02:18:37;;;;;;;;;;;22.70;51.90;;;;;;4998612;28;20009;-65
2022/05/14 02:21:03;;;;;;;;;;;22.80;52.00;;;;;;5000976;28;19941;-64
2022/05/14 02:23:28;;;;;;;;;;;22.80;52.00;;;;;;4996710;28;19914;-65
2022/05/14 02:25:54;;;;;;;;;;;22.70;51.90;;;;;;4981906;28;19921;-66
2022/05/14 02:28:19;;;;;;;;;;;22.70;52.00;;;;;;4994762;28;19913;-65
2022/05/14 02:30:45;;;;;;;;;;;22.70;52.00;;;;;;5000286;28;20427;-65
2022/05/14 02:33:11;;;;;;;;;;;22.80;52.10;;;;;;4997322;28;19925;-61
2022/05/14 02:35:37;;;;;;;;;;;22.70;51.90;;;;;;4980525;28;19978;-65
2022/05/14 02:38:02;;;;;;;;;;;22.70;52.00;;;;;;4972434;28;20388;-65
2022/05/14 02:40:28;;;;;;;;;;;22.70;52.00;;;;;;4990352;28;19921;-61
2022/05/14 02:42:53;;;;;;;;;;;22.70;52.00;;;;;;4999582;28;19941;-61
2022/05/14 02:45:19;;;;;;;;;;;22.70;52.00;;;;;;4982624;28;20408;-65
2022/05/14 02:47:44;;;;;;;;;;;22.70;52.00;;;;;;4985343;28;19922;-62
2022/05/14 02:50:10;;;;;;;;;;;22.70;52.00;;;;;;4997361;28;19918;-61
2022/05/14 02:52:35;;;;;;;;;;;22.70;52.10;;;;;;5005126;28;20392;-62
2022/05/14 02:55:01;;;;;;;;;;;22.70;52.10;;;;;;4978257;28;19918;-62
2022/05/14 02:57:26;;;;;;;;;;;22.70;52.10;;;;;;4984574;28;20389;-62
2022/05/14 02:59:52;;;;;;;;;;;22.60;52.00;;;;;;4997059;28;19918;-65
2022/05/14 03:02:17;;;;;;;;;;;22.60;52.00;;;;;;5004051;28;20430;-62
2022/05/14 03:04:43;;;;;;;;;;;22.60;52.00;;;;;;4983755;28;20004;-64
2022/05/14 03:07:09;;;;;;;;;;;22.60;52.00;;;;;;4983140;28;19917;-65
2022/05/14 03:09:35;;;;;;;;;;;22.60;52.10;;;;;;4991296;28;19999;-64
2022/05/14 03:12:01;;;;;;;;;;;22.60;52.10;;;;;;5001874;28;19937;-64
2022/05/14 03:14:26;;;;;;;;;;;22.70;52.10;;;;;;4986860;28;19917;-65
2022/05/14 03:16:52;;;;;;;;;;;22.60;52.10;;;;;;4984242;28;20404;-62
2022/05/14 03:19:17;;;;;;;;;;;22.60;52.10;;;;;;4987705;28;19949;-64
2022/05/14 03:21:42;;;;;;;;;;;22.60;52.10;;;;;;5003309;28;20385;-60
2022/05/14 03:24:08;;;;;;;;;;;22.60;52.10;;;;;;4973790;28;19914;-61
2022/05/14 03:26:33;;;;;;;;;;;22.60;52.20;;;;;;4983795;28;19914;-65
2022/05/14 03:28:59;;;;;;;;;;;22.60;52.10;;;;;;4983744;28;19957;-64
2022/05/14 03:31:24;;;;;;;;;;;22.60;52.20;;;;;;5002034;28;19921;-65
2022/05/14 03:33:50;;;;;;;;;;;22.60;52.10;;;;;;4997044;28;20646;-65
2022/05/14 03:36:15;;;;;;;;;;;22.60;52.20;;;;;;4989657;28;19944;-61
2022/05/14 03:38:41;;;;;;;;;;;22.60;52.20;;;;;;5004680;28;19924;-65
2022/05/14 03:41:06;;;;;;;;;;;22.60;52.20;;;;;;5000151;28;20600;-65
2022/05/14 03:43:32;;;;;;;;;;;22.60;52.20;;;;;;5002381;28;19972;-64
2022/05/14 03:45:57;;;;;;;;;;;22.50;52.20;;;;;;4981352;28;19944;-65
2022/05/14 03:48:23;;;;;;;;;;;22.50;52.10;;;;;;4982408;28;19918;-65
2022/05/14 03:50:48;;;;;;;;;;;22.60;52.20;;;;;;4996035;28;19925;-65
2022/05/14 03:53:14;;;;;;;;;;;22.50;52.20;;;;;;5001900;28;19928;-65
2022/05/14 03:55:39;;;;;;;;;;;22.50;52.10;;;;;;4980685;28;19925;-65
2022/05/14 03:58:05;;;;;;;;;;;22.50;52.20;;;;;;4983553;28;19918;-64
2022/05/14 04:00:30;;;;;;;;;;;22.60;52.20;;;;;;4994003;28;19914;-62
2022/05/14 04:02:56;;;;;;;;;;;22.50;52.10;;;;;;5002847;28;20400;-65
2022/05/14 04:05:21;;;;;;;;;;;22.50;52.10;;;;;;4987892;28;19941;-62
2022/05/14 04:07:47;;;;;;;;;;;22.50;52.20;;;;;;4987921;28;19926;-65
2022/05/14 04:10:13;;;;;;;;;;;22.50;52.20;;;;;;4991909;28;19920;-61
2022/05/14 04:12:38;;;;;;;;;;;22.50;52.30;;;;;;5002826;28;20398;-65
2022/05/14 04:15:04;;;;;;;;;;;22.50;52.20;;;;;;5000062;28;20616;-60
2022/05/14 04:17:30;;;;;;;;;;;22.50;52.50;;;;;;5003681;28;19922;-65
2022/05/14 04:19:55;;;;;;;;;;;22.50;52.20;;;;;;4991349;28;19913;-66
2022/05/14 04:22:21;;;;;;;;;;;22.50;52.20;;;;;;4984920;28;19925;-65
2022/05/14 04:24:46;;;;;;;;;;;22.50;52.20;;;;;;4986891;28;19949;-65
2022/05/14 04:27:12;;;;;;;;;;;22.50;52.20;;;;;;5004762;28;19918;-65
2022/05/14 04:29:37;;;;;;;;;;;22.50;52.40;;;;;;4997404;28;19914;-65
2022/05/14 04:32:03;;;;;;;;;;;22.60;52.40;;;;;;4986974;28;19918;-65
2022/05/14 04:34:28;;;;;;;;;;;22.60;52.60;;;;;;4984564;28;19941;-65
2022/05/14 04:36:55;;;;;;;;;;;22.60;52.70;;;;;;5007506;28;19914;-65
2022/05/14 04:39:31;;;;;;;;;;;22.60;52.60;;;;;;5002251;28;19921;-62
2022/05/14 04:42:04;;;;;;;;;;;22.60;52.90;;;;;;5004871;28;20411;-65
2022/05/14 04:44:30;;;;;;;;;;;22.60;53.10;;;;;;4999365;28;19925;-66
2022/05/14 04:46:56;;;;;;;;;;;22.60;53.10;;;;;;4987169;28;19922;-66
2022/05/14 04:49:21;;;;;;;;;;;22.60;53.30;;;;;;4981445;28;20440;-64
2022/05/14 04:51:47;;;;;;;;;;;22.60;53.40;;;;;;5000682;28;20317;-61
2022/05/14 04:54:12;;;;;;;;;;;22.60;53.40;;;;;;4994798;28;19941;-64
2022/05/14 04:56:38;;;;;;;;;;;22.60;53.50;;;;;;4984592;28;19914;-66
2022/05/14 04:59:03;;;;;;;;;;;22.60;53.50;;;;;;4976033;28;19918;-65
2022/05/14 05:01:29;;;;;;;;;;;22.60;53.60;;;;;;4994770;28;20016;-61
2022/05/14 05:03:54;;;;;;;;;;;22.60;53.60;;;;;;5001592;28;19960;-65
2022/05/14 05:06:23;;;;;;;;;;;22.60;53.60;;;;;;4986748;28;19913;-66
2022/05/14 05:08:49;;;;;;;;;;;22.70;53.60;;;;;;4981008;28;20352;-65
2022/05/14 05:11:15;;;;;;;;;;;22.70;53.60;;;;;;4988062;28;19921;-66
2022/05/14 05:13:40;;;;;;;;;;;22.70;53.50;;;;;;5001129;28;20381;-66
2022/05/14 05:16:06;;;;;;;;;;;22.70;53.50;;;;;;4989201;28;19920;-66
2022/05/14 05:18:31;;;;;;;;;;;22.70;53.60;;;;;;4980502;28;19941;-63
2022/05/14 05:20:57;;;;;;;;;;;22.70;53.50;;;;;;4982995;28;20465;-67
2022/05/14 05:23:22;;;;;;;;;;;22.70;53.60;;;;;;5004342;28;19952;-66
2022/05/14 05:25:48;;;;;;;;;;;22.70;53.50;;;;;;5001266;28;19956;-66
2022/05/14 05:28:14;;;;;;;;;;;22.70;53.60;;;;;;4985114;28;20292;-66
2022/05/14 05:30:39;;;;;;;;;;;22.70;53.60;;;;;;4984031;28;19953;-67
2022/05/14 05:33:09;;;;;;;;;;;22.70;53.70;;;;;;5003579;28;19952;-67
2022/05/14 05:35:34;;;;;;;;;;;22.70;53.70;;;;;;4998930;28;19913;-64
2022/05/14 05:37:59;;;;;;;;;;;22.70;53.80;;;;;;4986896;28;20669;-63
2022/05/14 05:40:25;;;;;;;;;;;22.70;54.40;;;;;;4981982;28;19921;-61
2022/05/14 05:42:50;;;;;;;;;;;22.70;53.70;;;;;;5007150;28;19924;-66
2022/05/14 05:45:16;;;;;;;;;;;22.70;53.70;;;;;;5001735;28;19935;-64
2022/05/14 05:47:42;;;;;;;;;;;22.80;53.80;;;;;;4986382;28;19918;-66
2022/05/14 05:50:07;;;;;;;;;;;22.70;53.70;;;;;;4983699;28;19925;-63
2022/05/14 05:52:33;;;;;;;;;;;22.70;53.90;;;;;;5002688;28;20292;-67
2022/05/14 05:57:42;;;;;;;;;;;22.70;53.70;;;;;;4990623;28;19924;-64
2022/05/14 06:00:15;;;;;;;;;;;22.70;53.80;;;;;;4986874;28;19917;-63
2022/05/14 06:02:40;;;;;;;;;;;22.70;53.60;;;;;;4983848;28;20312;-63
2022/05/14 06:05:05;;;;;;;;;;;22.70;53.80;;;;;;5006579;28;19918;-63
2022/05/14 06:07:34;;;;;;;;;;;22.70;53.90;;;;;;4992884;28;19921;-62
2022/05/14 06:10:01;;;;;;;;;;;22.70;53.80;;;;;;4984369;28;20388;-62
2022/05/14 06:12:27;;;;;;;;;;;22.70;53.80;;;;;;4997477;28;20020;-66
2022/05/14 06:14:52;;;;;;;;;;;22.70;53.70;;;;;;5006279;28;19917;-67
2022/05/14 06:17:17;;;;;;;;;;;22.70;53.80;;;;;;4993720;28;19952;-63
2022/05/14 06:19:43;;;;;;;;;;;22.70;53.80;;;;;;4984155;28;19917;-63
2022/05/14 06:22:08;;;;;;;;;;;22.70;53.80;;;;;;4991874;28;19917;-64
2022/05/14 06:24:37;;;;;;;;;;;22.70;53.90;;;;;;5004993;28;20376;-66
2022/05/14 06:27:02;;;;;;;;;;;22.70;53.90;;;;;;4996926;28;19925;-66
2022/05/14 06:29:29;;;;;;;;;;;22.60;53.90;;;;;;4982542;28;19918;-67
2022/05/14 06:31:54;;;;;;;;;;;22.70;53.90;;;;;;4990412;28;20012;-66
2022/05/14 06:34:20;;;;;;;;;;;22.60;53.90;;;;;;5002364;28;20434;-66
2022/05/14 06:36:45;;;;;;;;;;;22.60;53.70;;;;;;5000724;28;20033;-62
2022/05/14 06:39:10;;;;;;;;;;;22.60;53.90;;;;;;4983090;28;19914;-63
2022/05/14 06:41:36;;;;;;;;;;;22.60;53.90;;;;;;4985890;28;19925;-64
2022/05/14 06:44:01;;;;;;;;;;;22.60;53.90;;;;;;4990601;28;20053;-68
2022/05/14 06:46:27;;;;;;;;;;;22.60;53.90;;;;;;4982647;28;20376;-68
2022/05/14 06:48:52;;;;;;;;;;;22.60;54.00;;;;;;5002721;28;19921;-68
2022/05/14 06:51:21;;;;;;;;;;;22.60;54.00;;;;;;4985750;28;20300;-65
2022/05/14 06:53:47;;;;;;;;;;;22.60;54.00;;;;;;4984602;28;19921;-69
2022/05/14 06:56:12;;;;;;;;;;;22.60;54.00;;;;;;4966748;28;19984;-68
2022/05/14 06:58:38;;;;;;;;;;;22.60;53.90;;;;;;4997357;28;19918;-67
2022/05/14 07:01:04;;;;;;;;;;;22.60;54.00;;;;;;5003954;28;20009;-67
2022/05/14 07:08:57;;;;;;;;;;;22.50;54.00;;;;;;5000153;28;19925;-67
2022/05/14 07:11:23;;;;;;;;;;;22.50;54.00;;;;;;5004413;28;19913;-67
2022/05/14 07:13:50;;;;;;;;;;;22.50;53.90;;;;;;4987476;28;20024;-68
2022/05/14 07:16:15;;;;;;;;;;;22.50;53.90;;;;;;4986568;28;19922;-67
2022/05/14 07:18:41;;;;;;;;;;;22.50;53.90;;;;;;4999080;28;19925;-68
2022/05/14 07:21:06;;;;;;;;;;;22.50;53.90;;;;;;5004211;28;20006;-68
2022/05/14 07:23:32;;;;;;;;;;;22.50;53.90;;;;;;4993655;28;19921;-68
2022/05/14 07:26:01;;;;;;;;;;;22.50;53.90;;;;;;4986310;28;19922;-68
2022/05/14 07:28:27;;;;;;;;;;;22.50;53.70;;;;;;4978010;28;19918;-68
2022/05/14 07:30:52;;;;;;;;;;;22.50;53.80;;;;;;5006851;28;19944;-68
2022/05/14 07:33:18;;;;;;;;;;;22.50;53.60;;;;;;4996839;28;19925;-68
2022/05/14 07:35:43;;;;;;;;;;;22.40;53.60;;;;;;4983622;28;19918;-67
2022/05/14 07:38:08;;;;;;;;;;;22.50;53.50;;;;;;4990819;28;19913;-67
2022/05/14 07:40:34;;;;;;;;;;;22.50;53.60;;;;;;5001607;28;19913;-67
2022/05/14 07:43:01;;;;;;;;;;;22.50;53.60;;;;;;4995996;28;19961;-65
2022/05/14 07:45:32;;;;;;;;;;;22.50;53.40;;;;;;4977796;28;19928;-67
2022/05/14 07:47:57;;;;;;;;;;;22.40;53.60;;;;;;4985500;28;19913;-65
2022/05/14 07:50:23;;;;;;;;;;;22.40;53.50;;;;;;4997558;28;19920;-63
2022/05/14 07:52:48;;;;;;;;;;;22.40;53.60;;;;;;5001408;28;19921;-63
2022/05/14 07:55:13;;;;;;;;;;;22.40;53.50;;;;;;4976180;28;19914;-65
2022/05/14 07:57:39;;;;;;;;;;;22.40;53.60;;;;;;4985461;28;20381;-64
2022/05/14 08:00:04;;;;;;;;;;;22.40;53.60;;;;;;4998638;28;19925;-66
2022/05/14 08:02:31;;;;;;;;;;;22.40;53.60;;;;;;5004030;28;20000;-64
2022/05/14 08:04:57;;;;;;;;;;;22.40;53.60;;;;;;4988580;28;20398;-68
2022/05/14 08:07:22;;;;;;;;;;;22.40;53.50;;;;;;5003345;28;19917;-68
2022/05/14 08:09:48;;;;;;;;;;;22.40;53.70;;;;;;5001235;28;19952;-69
2022/05/14 08:12:13;;;;;;;;;;;22.40;53.60;;;;;;5004291;28;19928;-68
2022/05/14 08:14:42;;;;;;;;;;;22.40;53.60;;;;;;4989401;28;20530;-68
2022/05/14 08:17:08;;;;;;;;;;;22.40;53.60;;;;;;4982763;28;20357;-68
2022/05/14 08:19:33;;;;;;;;;;;22.40;53.60;;;;;;4995694;28;19921;-68
2022/05/14 08:24:43;;;;;;;;;;;22.40;53.40;;;;;;4992515;28;19921;-69
2022/05/14 08:27:09;;;;;;;;;;;22.40;53.50;;;;;;4985711;28;19918;-67
2022/05/14 08:29:35;;;;;;;;;;;22.30;53.50;;;;;;4993458;28;19918;-66
2022/05/14 08:32:01;;;;;;;;;;;22.40;53.60;;;;;;5003224;28;19917;-67
2022/05/14 08:34:26;;;;;;;;;;;22.40;53.70;;;;;;4993705;28;19925;-67
2022/05/14 08:36:52;;;;;;;;;;;22.40;53.60;;;;;;4983183;28;20651;-66
2022/05/14 08:39:17;;;;;;;;;;;22.40;53.60;;;;;;4987115;28;19970;-66
2022/05/14 08:41:43;;;;;;;;;;;22.40;53.90;;;;;;4988267;28;19914;-66
2022/05/14 08:44:12;;;;;;;;;;;22.40;53.20;;;;;;4981513;28;20404;-67
2022/05/14 08:46:38;;;;;;;;;;;22.40;52.10;;;;;;4977282;28;19921;-66
2022/05/14 08:49:06;;;;;;;;;;;22.40;52.00;;;;;;4984344;28;19921;-67
2022/05/14 08:51:32;;;;;;;;;;;22.40;52.00;;;;;;4981917;28;20372;-67
2022/05/14 08:53:58;;;;;;;;;;;22.40;52.30;;;;;;4982739;28;19921;-67
2022/05/14 08:56:26;;;;;;;;;;;22.40;52.30;;;;;;5001491;28;19944;-67
2022/05/14 08:58:52;;;;;;;;;;;22.40;52.50;;;;;;5003759;28;20000;-67
2022/05/14 09:01:18;;;;;;;;;;;22.40;52.80;;;;;;4986082;28;20337;-67
2022/05/14 09:03:44;;;;;;;;;;;22.40;52.80;;;;;;4983721;28;19996;-67
2022/05/14 09:06:09;;;;;;;;;;;22.40;53.00;;;;;;5005038;28;20004;-67
2022/05/14 09:08:35;;;;;;;;;;;22.40;53.00;;;;;;5003391;28;21926;-67
2022/05/14 09:11:06;;;;;;;;;;;22.40;53.00;;;;;;4971356;28;19914;-67
2022/05/14 09:13:40;;;;;;;;;;;22.40;53.10;;;;;;4985206;28;19917;-67
2022/05/14 09:16:06;;;;;;;;;;;22.40;53.20;;;;;;5004143;28;19917;-67
2022/05/14 09:18:32;;;;;;;;;;;22.40;53.10;;;;;;5007202;28;19960;-67
2022/05/14 09:21:03;;;;;;;;;;;22.40;53.10;;;;;;4989270;28;19925;-67
2022/05/14 09:23:29;;;;;;;;;;;22.40;53.20;;;;;;4985470;28;20392;-67
2022/05/14 09:25:55;;;;;;;;;;;22.40;53.30;;;;;;4999519;28;19918;-67
2022/05/14 09:28:26;;;;;;;;;;;22.40;53.30;;;;;;5004927;28;19917;-67
2022/05/14 09:30:52;;;;;;;;;;;22.40;53.30;;;;;;4991454;28;20340;-67
2022/05/14 09:33:27;;;;;;;;;;;22.40;53.30;;;;;;4984710;28;19918;-68
2022/05/14 09:35:54;;;;;;;;;;;22.40;53.30;;;;;;4997999;28;19972;-67
2022/05/14 09:38:21;;;;;;;;;;;22.40;53.40;;;;;;5005287;28;19949;-66
2022/05/14 09:40:46;;;;;;;;;;;22.40;53.30;;;;;;4976859;28;19920;-68
2022/05/14 09:43:15;;;;;;;;;;;22.40;53.30;;;;;;4982068;28;19918;-67
2022/05/14 09:45:41;;;;;;;;;;;22.40;53.30;;;;;;4973743;28;19914;-67
2022/05/14 09:48:14;;;;;;;;;;;22.40;53.30;;;;;;4966826;28;19945;-67
2022/05/14 09:50:40;;;;;;;;;;;22.40;53.20;;;;;;4984078;28;19921;-67
2022/05/14 09:53:05;;;;;;;;;;;22.40;53.10;;;;;;4984819;28;20092;-68
2022/05/14 09:55:50;;;;;;;;;;;22.40;53.30;;;;;;4989400;28;19928;-68
2022/05/14 09:58:35;;;;;;;;;;;22.40;53.20;;;;;;5003172;28;19918;-67
2022/05/14 10:01:05;;;;;;;;;;;22.40;53.30;;;;;;4993770;28;19918;-68
2022/05/14 10:03:42;;;;;;;;;;;22.40;53.10;;;;;;4983254;28;19973;-69
2022/05/14 10:06:24;;;;;;;;;;;22.40;53.20;;;;;;4995530;28;19925;-69
2022/05/14 10:08:58;;;;;;;;;;;22.40;53.30;;;;;;5001082;28;20416;-68
2022/05/14 10:11:30;;;;;;;;;;;22.40;53.40;;;;;;4991527;28;19918;-69
2022/05/14 10:14:02;;;;;;;;;;;22.40;53.40;;;;;;4984336;28;19961;-69
2022/05/14 10:16:32;;;;;;;;;;;22.40;53.30;;;;;;4996695;28;19919;-68
2022/05/14 10:18:59;;;;;;;;;;;22.40;53.30;;;;;;5002201;28;19918;-68
2022/05/14 10:21:25;;;;;;;;;;;22.40;53.20;;;;;;4991181;28;20672;-68
2022/05/14 10:26:46;;;;;;;;;;;22.40;53.00;;;;;;4996570;28;19968;-68
2022/05/14 10:29:26;;;;;;;;;;;22.40;53.00;;;;;;5003118;28;20349;-68
2022/05/14 10:31:59;;;;;;;;;;;22.40;53.00;;;;;;4988708;28;19921;-69
2022/05/14 10:34:27;;;;;;;;;;;22.40;52.90;;;;;;4984025;28;20421;-68
2022/05/14 10:36:59;;;;;;;;;;;22.40;52.70;;;;;;4995469;28;19996;-66
2022/05/14 10:39:41;;;;;;;;;;;22.40;52.70;;;;;;5002276;28;19918;-66
2022/05/14 10:42:18;;;;;;;;;;;22.40;52.80;;;;;;4988303;28;19928;-67
2022/05/14 10:45:01;;;;;;;;;;;22.40;52.50;;;;;;4982887;28;19918;-67
2022/05/14 10:47:26;;;;;;;;;;;22.40;52.50;;;;;;4998641;28;19929;-66
2022/05/14 10:49:56;;;;;;;;;;;22.40;52.70;;;;;;4984943;28;19913;-67
2022/05/14 10:52:22;;;;;;;;;;;22.40;52.70;;;;;;4986302;28;20429;-67
2022/05/14 10:54:47;;;;;;;;;;;22.40;52.50;;;;;;4984358;28;19914;-68
2022/05/14 10:57:13;;;;;;;;;;;22.40;52.60;;;;;;4997679;28;20401;-67
2022/05/14 10:59:39;;;;;;;;;;;22.40;52.70;;;;;;5003829;28;19914;-66
2022/05/14 11:02:12;;;;;;;;;;;22.40;52.50;;;;;;4993318;28;19987;-66
2022/05/14 11:04:40;;;;;;;;;;;22.40;52.60;;;;;;4983254;28;19921;-67
2022/05/14 11:07:06;;;;;;;;;;;22.40;52.50;;;;;;4994980;28;19953;-67
2022/05/14 11:09:34;;;;;;;;;;;22.40;52.40;;;;;;5001817;28;19917;-66
2022/05/14 11:12:01;;;;;;;;;;;22.40;52.60;;;;;;4995131;28;19922;-66
2022/05/14 11:14:43;;;;;;;;;;;22.40;52.60;;;;;;4983852;28;19922;-66
2022/05/14 11:17:18;;;;;;;;;;;22.40;52.40;;;;;;4991996;28;19917;-70
2022/05/14 11:19:43;;;;;;;;;;;22.40;52.60;;;;;;4975332;28;20570;-65
2022/05/14 11:22:19;;;;;;;;;;;22.40;52.70;;;;;;4994764;28;19924;-67
2022/05/14 11:24:45;;;;;;;;;;;22.40;52.70;;;;;;4980763;28;20464;-67
2022/05/14 11:27:10;;;;;;;;;;;22.30;52.50;;;;;;4991921;28;19988;-67
2022/05/14 11:29:47;;;;;;;;;;;22.40;52.40;;;;;;5002956;28;20301;-67
2022/05/14 11:32:15;;;;;;;;;;;22.40;52.50;;;;;;4992842;28;21212;-67
2022/05/14 11:34:49;;;;;;;;;;;22.40;52.40;;;;;;4965273;28;20707;-67
2022/05/14 11:37:15;;;;;;;;;;;22.40;52.30;;;;;;4991023;28;20577;-67
2022/05/14 11:39:40;;;;;;;;;;;22.30;52.10;;;;;;5002154;28;19920;-67
2022/05/14 11:42:25;;;;;;;;;;;22.40;52.20;;;;;;4998545;28;20506;-67
2022/05/14 11:44:55;;;;;;;;;;;22.40;52.50;;;;;;4966387;28;20005;-66
2022/05/14 11:47:39;;;;;;;;;;;22.40;52.00;;;;;;4989523;28;20388;-67
2022/05/14 11:50:04;;;;;;;;;;;22.40;52.00;;;;;;5002052;28;19913;-68
2022/05/14 11:52:34;;;;;;;;;;;22.40;52.10;;;;;;4977792;28;19929;-67
2022/05/14 11:55:11;;;;;;;;;;;22.40;52.00;;;;;;4962290;28;19965;-67
2022/05/14 11:57:39;;;;;;;;;;;22.40;52.10;;;;;;4977121;28;19918;-66
2022/05/14 12:00:08;;;;;;;;;;;22.40;52.30;;;;;;5000636;28;19988;-67
2022/05/14 12:02:35;;;;;;;;;;;22.40;52.20;;;;;;4993536;28;19929;-67
2022/05/14 12:05:00;;;;;;;;;;;22.40;52.40;;;;;;4981442;28;20580;-68
2022/05/14 12:07:34;;;;;;;;;;;22.40;52.40;;;;;;4986226;28;19917;-66
2022/05/14 12:10:20;;;;;;;;;;;22.40;52.40;;;;;;5001355;28;19914;-67
2022/05/14 12:12:54;;;;;;;;;;;22.40;52.90;;;;;;4964045;28;19922;-65
2022/05/14 12:15:22;;;;;;;;;;;22.40;52.80;;;;;;4982050;28;19918;-65
2022/05/14 12:17:48;;;;;;;;;;;22.40;53.10;;;;;;4988041;28;19968;-65
2022/05/14 12:20:17;;;;;;;;;;;22.40;53.30;;;;;;5001836;28;19980;-66
2022/05/14 12:22:49;;;;;;;;;;;22.40;53.50;;;;;;4995776;28;19921;-64
2022/05/14 12:25:15;;;;;;;;;;;22.40;53.80;;;;;;4962216;28;19918;-65
2022/05/14 12:27:48;;;;;;;;;;;22.40;53.80;;;;;;4999319;28;19980;-65
2022/05/14 12:30:13;;;;;;;;;;;22.40;54.20;;;;;;4995764;28;19924;-64
2022/05/14 12:35:29;;;;;;;;;;;22.40;54.20;;;;;;4980488;28;20453;-66
2022/05/14 12:37:55;;;;;;;;;;;22.40;54.00;;;;;;4969651;28;20001;-64
2022/05/14 12:40:27;;;;;;;;;;;22.40;53.90;;;;;;4996807;28;19920;-66
2022/05/14 12:42:52;;;;;;;;;;;22.40;54.00;;;;;;4996682;28;19918;-67
2022/05/14 12:45:18;;;;;;;;;;;22.40;53.60;;;;;;4977494;28;20003;-64
2022/05/14 12:47:43;;;;;;;;;;;22.40;53.50;;;;;;4982145;28;19958;-66
2022/05/14 12:50:20;;;;;;;;;;;22.40;53.50;;;;;;4998886;28;19917;-65
2022/05/14 12:52:53;;;;;;;;;;;22.40;53.40;;;;;;5000174;28;20012;-66
2022/05/14 12:55:19;;;;;;;;;;;22.40;53.40;;;;;;4976811;28;19957;-65
2022/05/14 12:57:46;;;;;;;;;;;22.40;53.30;;;;;;4982864;28;19964;-62
2022/05/14 13:00:13;;;;;;;;;;;22.40;53.30;;;;;;4997642;28;20008;-64
2022/05/14 13:02:42;;;;;;;;;;;22.40;53.30;;;;;;5000948;28;19922;-63
2022/05/14 13:05:18;;;;;;;;;;;22.40;53.20;;;;;;4980487;28;20016;-67
2022/05/14 13:07:54;;;;;;;;;;;22.40;53.20;;;;;;4981661;28;19924;-65
2022/05/14 13:10:25;;;;;;;;;;;22.40;53.00;;;;;;4976002;28;20562;-64
2022/05/14 13:12:53;;;;;;;;;;;22.40;53.00;;;;;;4974328;28;20001;-64
2022/05/14 13:15:18;;;;;;;;;;;22.40;52.70;;;;;;4976212;28;19965;-63
2022/05/14 13:17:44;;;;;;;;;;;22.40;52.80;;;;;;4982229;28;19945;-62
2022/05/14 13:20:17;;;;;;;;;;;22.40;53.10;;;;;;4999425;28;20093;-63
2022/05/14 13:22:42;;;;;;;;;;;22.50;53.50;;;;;;4999538;28;20197;-62
2022/05/14 13:25:26;;;;;;;;;;;22.50;53.60;;;;;;4985649;28;20579;-62
2022/05/14 13:27:52;;;;;;;;;;;22.50;53.90;;;;;;4982729;28;19997;-64
2022/05/14 13:30:18;;;;;;;;;;;22.50;54.10;;;;;;4980709;28;20433;-63
2022/05/14 13:32:43;;;;;;;;;;;22.50;53.90;;;;;;4989595;28;19929;-63
2022/05/14 13:38:07;;;;;;;;;;;22.40;53.80;;;;;;4964693;28;19964;-63
2022/05/14 13:40:43;;;;;;;;;;;22.50;53.80;;;;;;4991346;28;20436;-64
2022/05/14 13:43:09;;;;;;;;;;;22.50;53.80;;;;;;5000096;28;20392;-63
2022/05/14 13:45:35;;;;;;;;;;;22.60;53.90;;;;;;4981650;28;20293;-64
2022/05/14 13:48:02;;;;;;;;;;;22.60;53.80;;;;;;4983528;28;19917;-64
2022/05/14 13:50:31;;;;;;;;;;;22.60;53.80;;;;;;4994646;28;20293;-64
2022/05/14 13:52:57;;;;;;;;;;;22.60;53.80;;;;;;5002944;28;19959;-64
2022/05/14 13:55:28;;;;;;;;;;;22.60;53.80;;;;;;4990190;28;20212;-63
2022/05/14 13:57:55;;;;;;;;;;;22.60;53.80;;;;;;4984446;28;19924;-62
2022/05/14 14:00:21;;;;;;;;;;;22.60;53.80;;;;;;4996133;28;20024;-63
2022/05/14 14:03:05;;;;;;;;;;;22.60;53.60;;;;;;4995827;28;19936;-63
2022/05/14 14:05:32;;;;;;;;;;;22.60;53.60;;;;;;4988575;28;20946;-64
2022/05/14 14:07:57;;;;;;;;;;;22.60;53.60;;;;;;4983446;28;19976;-63
2022/05/14 14:10:32;;;;;;;;;;;22.60;53.60;;;;;;4990139;28;19913;-63
2022/05/14 14:12:58;;;;;;;;;;;22.60;53.60;;;;;;5001576;28;19918;-66
2022/05/14 14:15:25;;;;;;;;;;;22.60;53.80;;;;;;4992664;28;19960;-63
2022/05/14 14:17:52;;;;;;;;;;;22.60;54.50;;;;;;4984669;28;19925;-67
2022/05/14 14:20:18;;;;;;;;;;;22.70;54.50;;;;;;4993732;28;20597;-63
2022/05/14 14:22:43;;;;;;;;;;;22.70;54.70;;;;;;5003767;28;19914;-63
2022/05/14 14:25:10;;;;;;;;;;;22.80;55.40;;;;;;4977947;28;19914;-67
2022/05/14 14:27:35;;;;;;;;;;;22.80;54.60;;;;;;4966719;28;20125;-67
2022/05/14 14:30:02;;;;;;;;;;;22.80;54.50;;;;;;4990068;28;20411;-62
2022/05/14 14:32:27;;;;;;;;;;;22.80;54.60;;;;;;5004325;28;19921;-63
2022/05/14 14:34:53;;;;;;;;;;;22.80;54.60;;;;;;4997105;28;19956;-63
2022/05/14 14:37:18;;;;;;;;;;;22.80;54.70;;;;;;4984361;28;20616;-62
2022/05/14 14:39:44;;;;;;;;;;;22.80;54.20;;;;;;4988165;28;20003;-64
2022/05/14 14:42:12;;;;;;;;;;;22.70;54.20;;;;;;5003190;28;19928;-64